Divinopolis, Brazil
Current Conditions -  °F | °C
As of 7:17 PM on Monday 24 Nov 2014 (Local Time) from SBPR Reporting Station
Broken Clouds Broken Clouds  
Wind Chill: 72°   Ceiling: 8000
Heat Index: 72°   Visibility: 6mi
Dew Point: 68°   Wind: 3mph
Humidity: 88%   Direction: 110°ESE
Pressure: 30.03"   Gusts: NA
Location:  20.15°S, 44.9°W
Report Text: SBPR 242117Z 11003KT 9999 FEW020 BKN080 22/20 Q1017
Loading
Personal Weather Stations






























Interactive Weather Map New forecast layout! Learn more

10-Day Weather Forecast

Advertisements
Track Severe Weather on mobile